KIAB/IAB METAR and TAF weather

Enter ICAO airport designator
Station Type Date Time Source
KIAB METAR 2020/07/06 01:56 UTC NOAA

KIAB 060156Z AUTO 12009KT 10SM CLR 30/17 A2991 RMK AO2 SLP116 T02950173 $


Station Type Date Time Source
KIAB Decoded METAR 2020/07/06 01:56 UTC NOAA

McConnell Air Force Base, KS, United States (KIAB) 37-37N 097-16W
Jul 05, 2020 - 09:56 PM EDT / 2020.07.06 0156 UTC
Wind: from the ESE (120 degrees) at 10 MPH (9 KT):0
Visibility: 10 mile(s):0
Sky conditions: clear
Temperature: 85.1 F (29.5 C)
Dew Point: 63.1 F (17.3 C)
Relative Humidity: 47%
Pressure (altimeter): 29.91 in. Hg (1012 hPa)
ob: KIAB 060156Z AUTO 12009KT 10SM CLR 30/17 A2991 RMK AO2 SLP116 T02950173
cycle: 2

Station Type Date Time Source
KIAB TAF 2020/07/04 15:34 UTC NOAA

TAF
AMD KIAB 041527Z 0415/0521 04009KT 9999 SCT040 QNH2991INS
BECMG 0502/0503 VRB06KT 9999 FEW100 QNH2994INS
BECMG 0514/0515 VRB06KT 9999 BKN050 QNH2988INS TX31/0422Z TN22/0511Z LAST NO
AMDS AFT 0416 NEXT 0612

Example: see airport list